My Meet Scores
Emily Hanson, Gym Stars ETC - MyMeetScores.com
Top100 | Top Teams | Upcoming Meets | Completed Meets | Latest | Add Scores | Help| Support | Bookmark and Share

Emily Hanson, Gym Stars ETC
Personal Bests
LevelVault BarsBeamFloorAA
XG9.5259.525 8.9259.60037.075
XS9.5259.675 9.5009.60037.500
Meet Scores
Date Meet Team Session Level Division Vault Bars Beam Floor AA
2019-05-03 2019 Region 5 Xcel Championships Gym Stars ETC 08O XG CH E 9.225 5 8.625 36T 8.850 35T 9.400 9T 36.100 27T
2019-04-05 2019 Illinois XG, XP, XD State Championships Gym Stars ETC 6 XG Ch F 9.525 1 9.200 13T 7.775 26 9.575 2 36.075 17
2019-03-08 Lucky Invite Gym Stars ETC B03 XG Jr A 9.200 3 9.350 5T 8.925 16T 9.600 2 37.075 4T
2019-02-15 Women's Midwest Open Gym Stars ETC 10 XG Junior B 8.700 5 8.575 8 8.900 9 9.475 3 35.650 7
2019-02-01 St. Valentines Classic Gym Stars ETC 5B XG 10-11 yrs. 8.825 6T 9.100 5 8.775 6 9.375 4 36.075 3
2019-01-11 St Jude Benefit Meet Gym Stars ETC 5C XG Jr B 8.850 12 9.500 3 8.575 10 9.025 7 35.950 8
2018-12-14 Hawaiian Pineapple Classic Gym Stars ETC 7A XG Age11 8.800 4 9.525 2 8.825 7 8.800 11 35.950 2
2018-11-17 Paul Hamm Thanksgiving Class WOMENS Gym Stars ETC 8 XG Younger 9.000 8T 9.325 5 8.800 5 9.200 5T 36.325 4
2018-04-26 Xcel Region 5 Championships Gym Stars ETC 7B XS Ch G 9.350 3 9.475 13 9.325 9 9.350 5 37.500 3
2018-04-06 XCEL State Championships Gym Stars ETC 1A XS Ch E 9.525 4 9.300 8 9.375 11T 9.100 11T 37.300 6
2018-03-09 Lucky Invitational Gym Stars ETC B09 XS Jr A 8.700 11T 9.675 4T 9.250 8T 9.275 5 36.900 5
2018-02-16 Big Classic Gym Stars ETC 9A XS Junior B 9.300 7T 9.575 7T 9.500 6 8.500 13T 36.875 10
2018-01-12 St Jude Benefit Meet Gym Stars ETC 9C XS JrB 8.800 7T 9.325 5 9.300 5T 9.375 2T 36.800 3
2017-12-14 2017 Women's Hawaiian Pineapple Classic Gym Stars ETC 3A XS Age10 9.150 2 9.425 3 8.925 13 9.600 2 37.100 3
2017-11-17 SCGA Classic Gym Stars ETC 4 XS JrB 9.100 3 9.550 2 8.200 11 9.150 6 36.000 6
2017-05-11 2017 Region 5 Xcel Championships Gym Stars ETC 3B XS Ch C 9.150 13T 8.500 30 9.200 14 9.275 9T 36.125 23
2017-04-21 2017 Illinois Xcel State Championships Gym Stars ETC 5 XS Ch B 8.900 11T 9.450 10T 9.075 15T 9.300 7 36.725 8
2017-03-10 Lucky Invitational Gym Stars ETC B07 XS Jr A 9.300 4 9.400 6T 9.300 5 9.250 4T 37.250 5
2017-02-24 Kinetic Classic Gym Stars ETC 8 XS All Ages 8.700 26T 9.150 41T 9.275 37T 9.050 27T 36.175 30
2017-02-10 IGI Chicago Style Gymnastics Meet Gym Stars ETC 631L XS JrB 8.650 9 8.925 7 9.200 7 9.175 6 35.950 8
2016-12-15 2016 Hawaiian Pineapple Sanction Gym Stars ETC 7B XS Ages 9U 8.950 3 8.600 3 8.550 3 8.550 2T 34.650 3
Get your scores on
a t-shirt, pin, or hoodie

www.lazysuits.com